Terminal Aerodrome Forecast
Issued by NWS

Home | Current Version | Previous Version | Graphics & Text | Print | Product List | Glossary On
Versions: 1 2 3 4 5 6 7 8 9 10 11 12 13 14 15 16 17 18 19 20 21 22 23 24 25 26 27 28 29 30 31 32 33 34 35 36 37 38 39 40
000
FTUS43 KGRB 060520
TAFRHI
TAF
KRHI 060520Z 0606/0706 19006KT P6SM SCT035 BKN100 WS010/23035KT
     FM060900 35006KT 6SM BR SCT035 BKN120 WS010/22035KT
      TEMPO 0609/0611 3SM TSRA OVC025CB
     FM061100 VRB03KT P6SM VCSH SCT025 OVC050 PROB30 0615/0617 2SM
      TSRA BR SCT009 OVC025CB
     FM061700 19006KT 5SM -RA BR SCT012 BKN025
      TEMPO 0619/0623 2SM +TSRA OVC012CB
     FM062300 36009KT 3SM -SHRA SCT006 BKN012=

USA.gov is the U.S. government's official web portal to all federal, state and local government web resources and services.